South Lake, Indiana
Current Conditions -  °F | °C
As of 8:53 AM on Saturday 25 Oct 2014 (Local Time) from KHUF Reporting Station
Haze Haze  
Wind Chill: 52°   Ceiling: 1700
Heat Index: 52°   Visibility: 6mi
Dew Point: 50°   Wind: 0mph
Humidity: 93%   Direction: NA
Pressure: 30"   Gusts: NA
Location:  39.5107°N, 87.4772°W
Report Text: KHUF 251253Z 00000KT 6SM BR BKN017 11/10 A3000 RMK AO2 SLP158 T01110100
Loading
Personal Weather Stations






























Interactive Weather Map
Tropical Storm Tracking
New forecast layout! Learn more

10-Day Weather Forecast

Advertisements
Track Severe Weather on mobile